Time;durP1;ratioP1;P1;durP2;ratioP2;P2;SDS_P1;SDS_P2;PMS_P1;PMS_P2;Temp;Humidity;BMP_temperature;BMP_pressure;BME280_temperature;BME280_humidity;BME280_pressure;Samples;Min_cycle;Max_cycle;Signal;HPM_P1;HPM_P2
2021/06/22 00:03:49;;;;;;;4.80;4.40;;;;;;;;;;5053682;28;20818;-70
2021/06/22 00:06:15;;;;;;;3.93;3.53;;;;;;;;;;5053967;28;20492;-68
2021/06/22 00:08:41;;;;;;;6.20;3.90;;;;;;;;;;5052362;28;20822;-70
2021/06/22 00:11:07;;;;;;;7.80;3.93;;;;;;;;;;5052445;28;20419;-69
2021/06/22 00:13:33;;;;;;;5.77;4.63;;;;;;;;;;5052111;28;20754;-68
2021/06/22 00:19:03;;;;;;;7.40;4.00;;;;;;;;;;5052080;28;20418;-70
2021/06/22 00:21:29;;;;;;;6.47;4.20;;;;;;;;;;5052568;28;20754;-69
2021/06/22 00:23:55;;;;;;;4.53;4.13;;;;;;;;;;5033824;28;20435;-69
2021/06/22 00:26:21;;;;;;;5.07;4.60;;;;;;;;;;5052512;28;20510;-68
2021/06/22 00:28:48;;;;;;;4.83;4.23;;;;;;;;;;5051837;28;20423;-70
2021/06/22 00:34:17;;;;;;;4.20;3.90;;;;;;;;;;5051897;28;20453;-70
2021/06/22 00:36:43;;;;;;;5.13;4.63;;;;;;;;;;5052092;28;20457;-68
2021/06/22 00:39:09;;;;;;;4.37;3.97;;;;;;;;;;5052051;28;20442;-68
2021/06/22 00:41:35;;;;;;;5.90;4.53;;;;;;;;;;5052062;28;20506;-70
2021/06/22 00:44:08;;;;;;;4.67;3.90;;;;;;;;;;5052053;28;20511;-71
2021/06/22 00:46:38;;;;;;;6.00;4.23;;;;;;;;;;5034355;28;20462;-70
2021/06/22 00:49:04;;;;;;;6.93;5.23;;;;;;;;;;5051566;28;20481;-69
2021/06/22 00:51:30;;;;;;;5.93;3.77;;;;;;;;;;5051860;28;20984;-69
2021/06/22 00:53:56;;;;;;;5.60;4.83;;;;;;;;;;5051903;28;20538;-69
2021/06/22 00:56:23;;;;;;;5.90;5.23;;;;;;;;;;5052031;28;20521;-69
2021/06/22 00:58:50;;;;;;;3.60;3.40;;;;;;;;;;5051988;28;20422;-70
2021/06/22 01:04:20;;;;;;;4.70;3.67;;;;;;;;;;5051883;28;20426;-70
2021/06/22 01:06:46;;;;;;;6.00;4.33;;;;;;;;;;5055561;28;20418;-70
2021/06/22 01:09:12;;;;;;;4.23;3.93;;;;;;;;;;5055233;28;20886;-70
2021/06/22 01:11:38;;;;;;;4.13;3.73;;;;;;;;;;5055389;28;20478;-71
2021/06/22 01:14:04;;;;;;;4.07;3.63;;;;;;;;;;5054971;28;20415;-70
2021/06/22 01:19:34;;;;;;;4.27;3.30;;;;;;;;;;5054990;28;20438;-71
2021/06/22 01:22:00;;;;;;;6.80;4.40;;;;;;;;;;5055132;28;20415;-69
2021/06/22 01:24:26;;;;;;;4.70;4.07;;;;;;;;;;5054343;28;20628;-70
2021/06/22 01:26:55;;;;;;;3.20;2.80;;;;;;;;;;5055119;28;20403;-70
2021/06/22 01:29:21;;;;;;;6.23;3.83;;;;;;;;;;5036779;28;20932;-69
2021/06/22 01:31:47;;;;;;;3.83;3.43;;;;;;;;;;5054834;28;20546;-71
2021/06/22 01:34:13;;;;;;;4.90;3.80;;;;;;;;;;5054822;28;20477;-69
2021/06/22 01:36:42;;;;;;;9.17;4.40;;;;;;;;;;5054869;28;20449;-70
2021/06/22 01:39:12;;;;;;;4.50;3.70;;;;;;;;;;5054615;28;20915;-70
2021/06/22 01:41:38;;;;;;;7.30;4.23;;;;;;;;;;5054706;28;20468;-70
2021/06/22 01:44:04;;;;;;;7.43;3.60;;;;;;;;;;5054871;28;20688;-71
2021/06/22 01:49:34;;;;;;;4.70;3.50;;;;;;;;;;5054360;28;20501;-69
2021/06/22 01:52:00;;;;;;;6.73;4.30;;;;;;;;;;5054540;28;20557;-70
2021/06/22 01:54:26;;;;;;;5.00;4.20;;;;;;;;;;5054584;28;20455;-71
2021/06/22 01:56:53;;;;;;;4.53;4.03;;;;;;;;;;5054733;28;20407;-70
2021/06/22 01:59:19;;;;;;;5.07;4.00;;;;;;;;;;5054492;28;20423;-69
2021/06/22 02:04:48;;;;;;;3.83;3.53;;;;;;;;;;5054291;28;20426;-70
2021/06/22 02:07:14;;;;;;;4.40;4.00;;;;;;;;;;5054485;28;20419;-71
2021/06/22 02:09:40;;;;;;;5.40;3.43;;;;;;;;;;5054347;28;20407;-70
2021/06/22 02:12:07;;;;;;;4.50;4.13;;;;;;;;;;5054282;28;20474;-69
2021/06/22 02:14:33;;;;;;;3.70;3.40;;;;;;;;;;5054045;28;20419;-69
2021/06/22 02:16:59;;;;;;;7.23;3.70;;;;;;;;;;5054537;28;20415;-69
2021/06/22 02:19:25;;;;;;;4.60;3.70;;;;;;;;;;5059454;28;20408;-72
2021/06/22 02:21:51;;;;;;;6.40;4.13;;;;;;;;;;5054682;28;20418;-68
2021/06/22 02:24:16;;;;;;;5.07;3.97;;;;;;;;;;5053350;28;20801;-69
2021/06/22 02:26:42;;;;;;;3.50;3.20;;;;;;;;;;5053809;28;20407;-70
2021/06/22 02:29:08;;;;;;;4.07;3.73;;;;;;;;;;5052718;28;20429;-70
2021/06/22 02:34:38;;;;;;;4.10;3.70;;;;;;;;;;5053536;28;20418;-70
2021/06/22 02:37:04;;;;;;;5.03;4.03;;;;;;;;;;5053748;28;20521;-68
2021/06/22 02:39:30;;;;;;;4.60;4.20;;;;;;;;;;5053556;28;20407;-70
2021/06/22 02:41:56;;;;;;;5.30;4.10;;;;;;;;;;5053520;28;20893;-71
2021/06/22 02:44:22;;;;;;;3.90;3.60;;;;;;;;;;5053551;28;20514;-70
2021/06/22 02:49:51;;;;;;;3.93;3.63;;;;;;;;;;5053075;28;20477;-69
2021/06/22 02:52:18;;;;;;;4.03;3.63;;;;;;;;;;5053754;28;20776;-70
2021/06/22 02:54:44;;;;;;;4.67;4.20;;;;;;;;;;5052089;28;20411;-69
2021/06/22 02:57:10;;;;;;;8.33;3.87;;;;;;;;;;5053411;28;20415;-70
2021/06/22 02:59:38;;;;;;;5.80;4.73;;;;;;;;;;5053175;28;20408;-70
2021/06/22 03:05:08;;;;;;;5.03;4.50;;;;;;;;;;5052937;28;20434;-70
2021/06/22 03:07:34;;;;;;;5.00;4.60;;;;;;;;;;5053142;28;20422;-69
2021/06/22 03:10:00;;;;;;;5.50;5.10;;;;;;;;;;5052814;28;20411;-70
2021/06/22 03:12:26;;;;;;;4.93;4.63;;;;;;;;;;5053176;28;20550;-70
2021/06/22 03:14:52;;;;;;;4.87;4.47;;;;;;;;;;5034761;28;20451;-70
2021/06/22 03:17:18;;;;;;;7.07;4.90;;;;;;;;;;5053012;28;20446;-69
2021/06/22 03:19:44;;;;;;;5.30;4.20;;;;;;;;;;5052668;28;20414;-69
2021/06/22 03:22:10;;;;;;;5.73;4.60;;;;;;;;;;5053272;28;20503;-70
2021/06/22 03:24:36;;;;;;;5.07;4.67;;;;;;;;;;5052941;28;20764;-69
2021/06/22 03:27:02;;;;;;;7.90;5.47;;;;;;;;;;5052170;28;20412;-70
2021/06/22 03:29:28;;;;;;;5.40;4.87;;;;;;;;;;5051659;28;20490;-70
2021/06/22 03:34:57;;;;;;;6.07;5.53;;;;;;;;;;5052555;28;20430;-71
2021/06/22 03:37:23;;;;;;;5.63;4.93;;;;;;;;;;5052690;28;20851;-72
2021/06/22 03:39:49;;;;;;;5.67;4.90;;;;;;;;;;5052687;28;20415;-69
2021/06/22 03:42:15;;;;;;;5.43;4.63;;;;;;;;;;5052308;28;20419;-69
2021/06/22 03:44:41;;;;;;;4.93;4.50;;;;;;;;;;5034617;28;20557;-71
2021/06/22 03:50:11;;;;;;;5.80;5.30;;;;;;;;;;5052288;28;20545;-68
2021/06/22 03:52:37;;;;;;;7.20;5.27;;;;;;;;;;5052391;28;20467;-70
2021/06/22 03:55:25;;;;;;;8.00;5.30;;;;;;;;;;5052289;28;20773;-70
2021/06/22 03:57:51;;;;;;;7.77;5.53;;;;;;;;;;5051493;28;20868;-69
2021/06/22 04:00:18;;;;;;;6.07;5.33;;;;;;;;;;5052614;28;20415;-69
2021/06/22 04:02:44;;;;;;;6.40;5.20;;;;;;;;;;5052629;28;20425;-69
2021/06/22 04:05:10;;;;;;;6.00;5.60;;;;;;;;;;5052522;28;20411;-68
2021/06/22 04:07:36;;;;;;;7.40;6.30;;;;;;;;;;5034477;28;20493;-70
2021/06/22 04:10:03;;;;;;;6.80;6.17;;;;;;;;;;5034212;28;20431;-70
2021/06/22 04:12:29;;;;;;;6.37;5.77;;;;;;;;;;5052181;28;20913;-70
2021/06/22 04:14:55;;;;;;;7.00;6.40;;;;;;;;;;5052171;28;20476;-70
2021/06/22 04:20:24;;;;;;;6.60;6.10;;;;;;;;;;5052334;28;20441;-69
2021/06/22 04:22:50;;;;;;;6.73;5.97;;;;;;;;;;5034178;28;20431;-70
2021/06/22 04:25:16;;;;;;;9.27;5.90;;;;;;;;;;5051530;28;20882;-69
2021/06/22 04:27:42;;;;;;;7.30;6.67;;;;;;;;;;5052409;28;20848;-70
2021/06/22 04:30:08;;;;;;;6.77;5.47;;;;;;;;;;5052391;28;20510;-70
2021/06/22 04:35:38;;;;;;;8.03;7.00;;;;;;;;;;5052633;28;20468;-70
2021/06/22 04:38:06;;;;;;;10.10;6.90;;;;;;;;;;5051964;28;20506;-70
2021/06/22 04:40:33;;;;;;;6.20;5.70;;;;;;;;;;5054452;28;20415;-70
2021/06/22 04:43:00;;;;;;;7.27;6.57;;;;;;;;;;5055632;28;20427;-70
2021/06/22 04:45:26;;;;;;;9.00;7.60;;;;;;;;;;5038284;28;20920;-69
2021/06/22 04:47:52;;;;;;;8.20;7.43;;;;;;;;;;5037716;28;20422;-70
2021/06/22 04:50:18;;;;;;;9.03;8.23;;;;;;;;;;5037815;28;20457;-70
2021/06/22 04:52:44;;;;;;;8.43;7.67;;;;;;;;;;5055659;28;20477;-70
2021/06/22 04:55:14;;;;;;;8.40;7.60;;;;;;;;;;5055659;28;20505;-69
2021/06/22 04:57:41;;;;;;;8.20;6.83;;;;;;;;;;5055890;28;20490;-71
2021/06/22 05:00:07;;;;;;;10.07;8.63;;;;;;;;;;5055861;28;20517;-70
2021/06/22 05:05:37;;;;;;;8.07;7.47;;;;;;;;;;5055425;28;20472;-70
2021/06/22 05:08:03;;;;;;;9.83;8.53;;;;;;;;;;5055769;28;20909;-71
2021/06/22 05:10:29;;;;;;;10.03;9.03;;;;;;;;;;5055459;28;20411;-69
2021/06/22 05:12:55;;;;;;;9.47;8.77;;;;;;;;;;5055352;28;20471;-70
2021/06/22 05:15:21;;;;;;;11.67;7.87;;;;;;;;;;5055291;28;20913;-69
2021/06/22 05:20:51;;;;;;;8.83;7.80;;;;;;;;;;5055245;28;20422;-69
2021/06/22 05:23:17;;;;;;;11.50;9.23;;;;;;;;;;5055168;28;20418;-70
2021/06/22 05:25:43;;;;;;;10.17;9.27;;;;;;;;;;5055591;28;20415;-69
2021/06/22 05:28:09;;;;;;;12.40;9.70;;;;;;;;;;5037175;28;20462;-70
2021/06/22 05:30:35;;;;;;;10.50;9.60;;;;;;;;;;5054941;28;20556;-70
2021/06/22 05:36:05;;;;;;;9.83;8.90;;;;;;;;;;5055008;28;21003;-70
2021/06/22 05:38:31;;;;;;;10.60;9.17;;;;;;;;;;5054761;28;20478;-69
2021/06/22 05:40:57;;;;;;;10.03;9.13;;;;;;;;;;5055056;28;20498;-70
2021/06/22 05:43:23;;;;;;;11.97;9.10;;;;;;;;;;5054503;28;20410;-70
2021/06/22 05:45:49;;;;;;;10.40;9.37;;;;;;;;;;5054670;28;20506;-70
2021/06/22 05:48:15;;;;;;;10.80;9.30;;;;;;;;;;5054379;28;20474;-69
2021/06/22 05:50:41;;;;;;;12.23;10.10;;;;;;;;;;5054350;28;20506;-70
2021/06/22 05:53:07;;;;;;;12.33;11.23;;;;;;;;;;5053893;28;20566;-71
2021/06/22 05:55:33;;;;;;;12.47;11.27;;;;;;;;;;5036729;28;20435;-70
2021/06/22 05:57:59;;;;;;;11.43;10.27;;;;;;;;;;5054315;28;20426;-69
2021/06/22 06:00:26;;;;;;;11.60;10.50;;;;;;;;;;5053875;28;20408;-71
2021/06/22 06:05:55;;;;;;;12.10;10.47;;;;;;;;;;5054522;28;20450;-71
2021/06/22 06:08:21;;;;;;;12.60;11.30;;;;;;;;;;5054290;28;20431;-70
2021/06/22 06:10:47;;;;;;;11.97;10.90;;;;;;;;;;5054255;28;20435;-69
2021/06/22 06:13:13;;;;;;;13.23;11.93;;;;;;;;;;5054028;28;20987;-68
2021/06/22 06:15:39;;;;;;;14.10;10.90;;;;;;;;;;5053877;28;20753;-68
2021/06/22 06:21:09;;;;;;;13.20;11.30;;;;;;;;;;5053380;28;20426;-68
2021/06/22 06:23:40;;;;;;;11.27;10.17;;;;;;;;;;5053382;28;20423;-68
2021/06/22 06:26:07;;;;;;;9.87;8.97;;;;;;;;;;5053685;28;20419;-67
2021/06/22 06:28:40;;;;;;;9.97;9.17;;;;;;;;;;5052749;28;20472;-69
2021/06/22 06:31:06;;;;;;;10.13;9.23;;;;;;;;;;5053221;28;20781;-69
2021/06/22 06:36:36;;;;;;;10.50;9.50;;;;;;;;;;5053836;28;20950;-68
2021/06/22 06:39:02;;;;;;;11.50;9.40;;;;;;;;;;5052901;28;20403;-67
2021/06/22 06:41:28;;;;;;;9.07;8.33;;;;;;;;;;5035474;28;20797;-69
2021/06/22 06:43:54;;;;;;;8.73;8.03;;;;;;;;;;5035985;28;20430;-68
2021/06/22 06:46:20;;;;;;;9.67;7.73;;;;;;;;;;5061606;28;20430;-67
2021/06/22 06:48:46;;;;;;;15.03;6.60;;;;;;;;;;5053648;28;20474;-68
2021/06/22 06:51:12;;;;;;;6.83;5.97;;;;;;;;;;5053602;28;20434;-67
2021/06/22 06:53:39;;;;;;;9.07;6.10;;;;;;;;;;5053354;28;20583;-68
2021/06/22 06:56:05;;;;;;;6.93;6.33;;;;;;;;;;5053325;28;20434;-68
2021/06/22 06:58:31;;;;;;;7.10;6.57;;;;;;;;;;5052502;28;20518;-68
2021/06/22 07:00:57;;;;;;;10.00;5.93;;;;;;;;;;5052473;28;20826;-69
2021/06/22 07:06:26;;;;;;;6.73;6.17;;;;;;;;;;5051258;28;20441;-74
2021/06/22 07:08:52;;;;;;;9.17;6.57;;;;;;;;;;5051487;28;20515;-73
2021/06/22 07:11:21;;;;;;;6.93;6.30;;;;;;;;;;5050579;28;20430;-73
2021/06/22 07:13:47;;;;;;;7.07;6.40;;;;;;;;;;5050895;28;20474;-72
2021/06/22 07:16:13;;;;;;;6.73;5.30;;;;;;;;;;5050908;28;20769;-72
2021/06/22 07:21:43;;;;;;;6.40;5.80;;;;;;;;;;5046348;28;20426;-70
2021/06/22 07:24:09;;;;;;;5.70;5.20;;;;;;;;;;5049861;28;20419;-70
2021/06/22 07:26:35;;;;;;;7.00;6.30;;;;;;;;;;5050435;28;20423;-68
2021/06/22 07:29:02;;;;;;;6.20;5.60;;;;;;;;;;5050203;28;20498;-68
2021/06/22 07:31:27;;;;;;;6.70;5.60;;;;;;;;;;5050024;28;20431;-71
2021/06/22 07:36:57;;;;;;;5.90;5.00;;;;;;;;;;5050088;28;20422;-71
2021/06/22 07:39:23;;;;;;;6.00;5.40;;;;;;;;;;5050308;28;20890;-72
2021/06/22 07:41:50;;;;;;;5.07;4.53;;;;;;;;;;5051226;28;20407;-70
2021/06/22 07:44:16;;;;;;;4.73;4.27;;;;;;;;;;5050696;28;20454;-70
2021/06/22 07:46:42;;;;;;;5.67;4.77;;;;;;;;;;5050456;28;20414;-70
2021/06/22 07:52:11;;;;;;;4.83;4.30;;;;;;;;;;5050425;28;20873;-70
2021/06/22 07:54:37;;;;;;;6.87;4.70;;;;;;;;;;5050529;28;20411;-71
2021/06/22 07:57:03;;;;;;;6.67;4.10;;;;;;;;;;5050451;28;20843;-71
2021/06/22 07:59:29;;;;;;;4.43;4.03;;;;;;;;;;5050328;28;20482;-71
2021/06/22 08:01:55;;;;;;;4.10;3.70;;;;;;;;;;5050443;28;20995;-70
2021/06/22 08:07:24;;;;;;;5.20;3.20;;;;;;;;;;5049902;28;20502;-70
2021/06/22 08:09:50;;;;;;;6.40;4.00;;;;;;;;;;5050063;28;20419;-69
2021/06/22 08:12:16;;;;;;;5.77;3.57;;;;;;;;;;5049862;28;20532;-70
2021/06/22 08:14:42;;;;;;;3.60;3.10;;;;;;;;;;5050324;28;20434;-70
2021/06/22 08:17:08;;;;;;;3.50;3.13;;;;;;;;;;5053761;28;20506;-70
2021/06/22 08:19:34;;;;;;;3.73;3.37;;;;;;;;;;5053539;28;20476;-70
2021/06/22 08:22:02;;;;;;;3.00;2.80;;;;;;;;;;5054440;28;20411;-69
2021/06/22 08:24:28;;;;;;;3.13;2.60;;;;;;;;;;5054206;28;20500;-70
2021/06/22 08:26:54;;;;;;;3.13;2.70;;;;;;;;;;5054523;28;20434;-69
2021/06/22 08:29:20;;;;;;;3.07;2.73;;;;;;;;;;5053700;28;20418;-70
2021/06/22 08:31:46;;;;;;;2.63;2.43;;;;;;;;;;5053828;28;20531;-71
2021/06/22 08:37:16;;;;;;;2.83;2.60;;;;;;;;;;5053968;28;20414;-70
2021/06/22 08:39:42;;;;;;;4.63;3.33;;;;;;;;;;5053908;28;20478;-70
2021/06/22 08:42:10;;;;;;;5.70;3.77;;;;;;;;;;5053874;28;20433;-70
2021/06/22 08:44:36;;;;;;;3.60;2.90;;;;;;;;;;5053739;28;20873;-70
2021/06/22 08:47:02;;;;;;;6.80;3.37;;;;;;;;;;5053657;28;20422;-70
2021/06/22 08:52:32;;;;;;;4.50;3.00;;;;;;;;;;5052420;28;20469;-70
2021/06/22 08:54:58;;;;;;;6.50;2.87;;;;;;;;;;5035446;28;20419;-68
2021/06/22 08:57:24;;;;;;;2.70;2.33;;;;;;;;;;5053005;28;20422;-70
2021/06/22 08:59:51;;;;;;;2.90;2.60;;;;;;;;;;5052855;28;20497;-70
2021/06/22 09:02:24;;;;;;;4.33;3.10;;;;;;;;;;5056101;28;20417;-69
2021/06/22 09:07:54;;;;;;;6.63;3.00;;;;;;;;;;5053211;28;20468;-71
2021/06/22 09:10:21;;;;;;;3.80;3.13;;;;;;;;;;5034832;28;20979;-73
2021/06/22 09:12:47;;;;;;;4.20;3.07;;;;;;;;;;5052732;28;20466;-71
2021/06/22 09:15:17;;;;;;;3.83;3.53;;;;;;;;;;5053027;28;20485;-70
2021/06/22 09:17:46;;;;;;;3.50;3.20;;;;;;;;;;5052743;28;20418;-69
2021/06/22 09:20:12;;;;;;;6.60;3.33;;;;;;;;;;5052915;28;20502;-69
2021/06/22 09:22:38;;;;;;;4.03;3.20;;;;;;;;;;5052921;28;20415;-69
2021/06/22 09:25:09;;;;;;;3.47;3.17;;;;;;;;;;5052887;28;20419;-70
2021/06/22 09:27:48;;;;;;;5.00;3.40;;;;;;;;;;5051756;28;20489;-70
2021/06/22 09:30:14;;;;;;;6.07;3.97;;;;;;;;;;5053502;28;20905;-69
2021/06/22 09:32:42;;;;;;;5.60;3.77;;;;;;;;;;5052900;28;20474;-72
2021/06/22 09:35:21;;;;;;;3.60;3.30;;;;;;;;;;5052735;28;20721;-70
2021/06/22 09:37:51;;;;;;;4.03;3.00;;;;;;;;;;5052859;28;20917;-72
2021/06/22 09:40:29;;;;;;;5.50;3.23;;;;;;;;;;5053089;28;20834;-69
2021/06/22 09:42:56;;;;;;;3.00;2.80;;;;;;;;;;5052596;28;20502;-70
2021/06/22 09:45:22;;;;;;;5.33;3.47;;;;;;;;;;5052933;28;20484;-68
2021/06/22 09:53:56;;;;;;;4.37;3.97;;;;;;;;;;5052433;28;20442;-69
2021/06/22 09:56:25;;;;;;;4.43;4.13;;;;;;;;;;5052425;28;20407;-71
2021/06/22 09:58:52;;;;;;;6.30;5.50;;;;;;;;;;5052362;28;20517;-70
2021/06/22 10:01:31;;;;;;;6.60;5.90;;;;;;;;;;5052797;28;20743;-71
2021/06/22 10:04:12;;;;;;;6.43;5.83;;;;;;;;;;5052040;28;20419;-69
2021/06/22 10:06:38;;;;;;;7.10;6.47;;;;;;;;;;5052790;28;20425;-71
2021/06/22 10:09:04;;;;;;;9.30;8.33;;;;;;;;;;5052820;28;20510;-69
2021/06/22 10:11:35;;;;;;;7.27;6.37;;;;;;;;;;5034530;28;20435;-71
2021/06/22 10:14:03;;;;;;;5.97;5.37;;;;;;;;;;5052062;28;20435;-73
2021/06/22 10:16:32;;;;;;;4.63;4.23;;;;;;;;;;5052162;28;20434;-70
2021/06/22 10:18:59;;;;;;;6.43;5.83;;;;;;;;;;5034111;28;20967;-71
2021/06/22 10:21:26;;;;;;;5.90;5.50;;;;;;;;;;5051515;28;21026;-70
2021/06/22 10:23:52;;;;;;;6.73;5.97;;;;;;;;;;5033685;28;20450;-70
2021/06/22 10:26:19;;;;;;;6.30;5.73;;;;;;;;;;5051320;28;20481;-71
2021/06/22 10:28:48;;;;;;;7.97;7.23;;;;;;;;;;5051681;28;20523;-71
2021/06/22 10:31:14;;;;;;;5.93;5.40;;;;;;;;;;5051329;28;20443;-71
2021/06/22 10:33:40;;;;;;;6.03;5.47;;;;;;;;;;5051074;28;20512;-70
2021/06/22 10:36:06;;;;;;;6.73;6.13;;;;;;;;;;5051407;28;20411;-70
2021/06/22 10:38:37;;;;;;;6.27;5.77;;;;;;;;;;5033251;28;21124;-70
2021/06/22 10:41:04;;;;;;;7.30;5.80;;;;;;;;;;5052027;28;20840;-71
2021/06/22 10:43:39;;;;;;;6.53;5.90;;;;;;;;;;5050568;28;20407;-72
2021/06/22 10:46:06;;;;;;;8.27;7.13;;;;;;;;;;5048498;28;20407;-69
2021/06/22 10:48:40;;;;;;;6.10;5.50;;;;;;;;;;5050220;28;20586;-72
2021/06/22 10:51:24;;;;;;;6.87;5.73;;;;;;;;;;5051927;28;20422;-71
2021/06/22 10:53:50;;;;;;;7.00;6.30;;;;;;;;;;5051617;28;20808;-72
2021/06/22 10:56:18;;;;;;;6.80;6.20;;;;;;;;;;5050044;28;20489;-70
2021/06/22 10:59:03;;;;;;;7.20;5.77;;;;;;;;;;5050842;28;20910;-71
2021/06/22 11:01:29;;;;;;;11.93;6.87;;;;;;;;;;5050974;28;20480;-70
2021/06/22 11:04:04;;;;;;;6.50;5.90;;;;;;;;;;5050772;28;20430;-71
2021/06/22 11:06:31;;;;;;;6.50;6.00;;;;;;;;;;5033011;28;20433;-70
2021/06/22 11:09:15;;;;;;;6.93;6.33;;;;;;;;;;5050772;28;20411;-71
2021/06/22 11:11:41;;;;;;;5.03;4.53;;;;;;;;;;5051092;28;20524;-70
2021/06/22 11:14:07;;;;;;;6.30;5.80;;;;;;;;;;5033034;28;20914;-69
2021/06/22 11:16:33;;;;;;;5.67;5.17;;;;;;;;;;5050887;28;21076;-71
2021/06/22 11:18:59;;;;;;;5.90;5.23;;;;;;;;;;5046882;28;20427;-71
2021/06/22 11:21:26;;;;;;;5.83;4.73;;;;;;;;;;5048257;28;20418;-70
2021/06/22 11:23:57;;;;;;;5.70;5.23;;;;;;;;;;5047216;28;20411;-69
2021/06/22 11:26:25;;;;;;;5.83;5.00;;;;;;;;;;5049055;28;20426;-71
2021/06/22 11:28:53;;;;;;;5.10;4.60;;;;;;;;;;5045207;28;20552;-72
2021/06/22 11:31:45;;;;;;;4.73;4.43;;;;;;;;;;5041791;28;20411;-73
2021/06/22 11:34:21;;;;;;;9.57;5.83;;;;;;;;;;5010483;28;20517;-72
2021/06/22 11:36:48;;;;;;;5.37;4.90;;;;;;;;;;5043922;28;20575;-74
2021/06/22 11:39:20;;;;;;;9.23;4.80;;;;;;;;;;5042510;28;20506;-73
2021/06/22 11:42:05;;;;;;;7.00;5.50;;;;;;;;;;5042772;28;20418;-71
2021/06/22 11:44:31;;;;;;;7.60;4.97;;;;;;;;;;5042304;28;20914;-72
2021/06/22 11:46:58;;;;;;;7.13;5.30;;;;;;;;;;5043685;28;20482;-73
2021/06/22 11:49:38;;;;;;;5.67;5.17;;;;;;;;;;5043126;28;20510;-72
2021/06/22 11:52:04;;;;;;;6.23;5.33;;;;;;;;;;5042676;28;20474;-71
2021/06/22 11:54:54;;;;;;;6.57;5.97;;;;;;;;;;5042474;28;20503;-71
2021/06/22 11:57:21;;;;;;;7.93;5.60;;;;;;;;;;5025551;28;20470;-72
2021/06/22 11:59:48;;;;;;;6.20;5.60;;;;;;;;;;5028815;28;20484;-73
2021/06/22 12:02:15;;;;;;;5.53;4.90;;;;;;;;;;5046970;28;20525;-74
2021/06/22 12:04:41;;;;;;;6.40;5.80;;;;;;;;;;5029135;28;20723;-72
2021/06/22 12:07:08;;;;;;;6.70;6.00;;;;;;;;;;5046912;28;20419;-73
2021/06/22 12:09:35;;;;;;;6.57;5.93;;;;;;;;;;5028888;28;20511;-73
2021/06/22 12:12:01;;;;;;;5.60;5.10;;;;;;;;;;5028674;28;20501;-74
2021/06/22 12:14:27;;;;;;;5.80;5.00;;;;;;;;;;5046357;28;20909;-73
2021/06/22 12:16:54;;;;;;;6.30;4.83;;;;;;;;;;5047219;28;20466;-73
2021/06/22 12:19:21;;;;;;;5.80;5.33;;;;;;;;;;5045040;28;20837;-73
2021/06/22 12:21:48;;;;;;;6.00;5.30;;;;;;;;;;5046597;28;20510;-73
2021/06/22 12:24:17;;;;;;;6.27;5.67;;;;;;;;;;5028255;28;20760;-72
2021/06/22 12:26:45;;;;;;;5.50;4.80;;;;;;;;;;5046508;28;20423;-73
2021/06/22 12:29:20;;;;;;;5.07;4.53;;;;;;;;;;5046190;28;20411;-71
2021/06/22 12:31:53;;;;;;;4.87;4.43;;;;;;;;;;5046545;28;20956;-72
2021/06/22 12:34:20;;;;;;;6.23;5.40;;;;;;;;;;5046094;28;20426;-73
2021/06/22 12:36:46;;;;;;;5.60;5.10;;;;;;;;;;5048605;28;20415;-72
2021/06/22 12:39:15;;;;;;;5.83;5.20;;;;;;;;;;5048523;28;20426;-73
2021/06/22 12:41:41;;;;;;;8.53;5.80;;;;;;;;;;5048485;28;20836;-72
2021/06/22 12:44:08;;;;;;;9.03;5.57;;;;;;;;;;5046033;28;20419;-74
2021/06/22 12:46:38;;;;;;;7.83;6.70;;;;;;;;;;5048212;28;20458;-73
2021/06/22 12:49:04;;;;;;;6.37;5.77;;;;;;;;;;5049089;28;20579;-73
2021/06/22 12:54:36;;;;;;;7.00;5.80;;;;;;;;;;5049536;28;20517;-73
2021/06/22 12:57:06;;;;;;;8.03;6.50;;;;;;;;;;5049428;28;20789;-75
2021/06/22 12:59:43;;;;;;;9.10;6.60;;;;;;;;;;5049096;28;20430;-72
2021/06/22 13:02:10;;;;;;;7.20;6.10;;;;;;;;;;5052337;28;20421;-72
2021/06/22 13:04:41;;;;;;;8.90;5.13;;;;;;;;;;5052610;28;20426;-74
2021/06/22 13:07:08;;;;;;;5.53;5.03;;;;;;;;;;5053211;28;20423;-74
2021/06/22 13:09:37;;;;;;;5.10;4.60;;;;;;;;;;5052719;28;20415;-73
2021/06/22 13:12:12;;;;;;;5.33;4.83;;;;;;;;;;5051122;28;20994;-73
2021/06/22 13:14:39;;;;;;;3.97;2.70;;;;;;;;;;5052719;28;20398;-73
2021/06/22 13:17:06;;;;;;;6.33;3.50;;;;;;;;;;5052989;28;20443;-72
2021/06/22 13:19:33;;;;;;;2.40;2.07;;;;;;;;;;5052591;28;20410;-72
2021/06/22 13:22:00;;;;;;;2.40;2.20;;;;;;;;;;5052506;28;20419;-73
2021/06/22 13:24:29;;;;;;;3.20;2.90;;;;;;;;;;5053068;28;20453;-74
2021/06/22 13:26:56;;;;;;;4.40;2.47;;;;;;;;;;5053107;28;20889;-73
2021/06/22 13:29:22;;;;;;;3.17;2.27;;;;;;;;;;5031193;28;20423;-73
2021/06/22 13:31:56;;;;;;;2.00;1.80;;;;;;;;;;5050413;28;20446;-73
2021/06/22 13:34:28;;;;;;;2.50;2.23;;;;;;;;;;5050605;28;20427;-72
2021/06/22 13:40:05;;;;;;;2.80;2.60;;;;;;;;;;5055208;28;20465;-74
2021/06/22 13:42:31;;;;;;;2.40;2.30;;;;;;;;;;5052885;28;20426;-74
2021/06/22 13:45:07;;;;;;;2.90;2.63;;;;;;;;;;5052304;28;20423;-75
2021/06/22 13:47:37;;;;;;;3.20;2.00;;;;;;;;;;5052589;28;20505;-74
2021/06/22 13:50:18;;;;;;;2.57;2.37;;;;;;;;;;5052450;28;20447;-75
2021/06/22 13:53:00;;;;;;;2.90;2.60;;;;;;;;;;5052064;28;20478;-74
2021/06/22 13:55:36;;;;;;;3.90;3.07;;;;;;;;;;5052155;28;20937;-74
2021/06/22 13:58:17;;;;;;;3.63;3.33;;;;;;;;;;5052025;28;20920;-73
2021/06/22 14:00:44;;;;;;;4.83;3.27;;;;;;;;;;5051802;28;20945;-74
2021/06/22 14:03:10;;;;;;;2.60;2.40;;;;;;;;;;5051477;28;20998;-76
2021/06/22 14:05:38;;;;;;;2.67;2.03;;;;;;;;;;5052106;28;20438;-76
2021/06/22 14:08:04;;;;;;;3.53;2.90;;;;;;;;;;5052241;28;20423;-73
2021/06/22 14:10:32;;;;;;;2.80;2.60;;;;;;;;;;5051804;28;20414;-73
2021/06/22 14:12:59;;;;;;;2.20;2.00;;;;;;;;;;5050607;28;20467;-73
2021/06/22 14:15:25;;;;;;;2.40;2.20;;;;;;;;;;5034118;28;20430;-76
2021/06/22 14:17:53;;;;;;;2.00;1.90;;;;;;;;;;5051112;28;20427;-73
2021/06/22 14:20:19;;;;;;;3.30;1.80;;;;;;;;;;5051582;28;20902;-74
2021/06/22 14:22:45;;;;;;;3.47;2.30;;;;;;;;;;5051395;28;20513;-73
2021/06/22 14:25:11;;;;;;;2.70;2.50;;;;;;;;;;5051443;28;20507;-74
2021/06/22 14:27:37;;;;;;;4.40;2.57;;;;;;;;;;5051374;28;20430;-73
2021/06/22 14:30:04;;;;;;;2.73;2.50;;;;;;;;;;5051423;28;20958;-74
2021/06/22 14:32:30;;;;;;;2.20;2.00;;;;;;;;;;5051185;28;20893;-75
2021/06/22 14:40:44;;;;;;;2.70;2.50;;;;;;;;;;5051211;28;20406;-75
2021/06/22 14:43:11;;;;;;;3.40;2.43;;;;;;;;;;5034099;28;20424;-74
2021/06/22 14:45:37;;;;;;;2.07;1.97;;;;;;;;;;5052786;28;20493;-75
2021/06/22 14:48:04;;;;;;;2.77;2.57;;;;;;;;;;5052513;28;20467;-76
2021/06/22 14:50:31;;;;;;;2.77;2.50;;;;;;;;;;5052641;28;20454;-76
2021/06/22 14:52:57;;;;;;;2.70;2.20;;;;;;;;;;5052319;28;20821;-76
2021/06/22 14:55:32;;;;;;;2.53;2.00;;;;;;;;;;5052646;28;20821;-74
2021/06/22 14:58:01;;;;;;;2.10;1.87;;;;;;;;;;5052151;28;20414;-74
2021/06/22 15:00:27;;;;;;;3.37;1.60;;;;;;;;;;5052291;28;20773;-75
2021/06/22 15:03:03;;;;;;;2.10;2.00;;;;;;;;;;5052532;28;20427;-74
2021/06/22 15:05:29;;;;;;;2.50;1.70;;;;;;;;;;5052427;28;20426;-77
2021/06/22 15:07:56;;;;;;;2.70;2.40;;;;;;;;;;5052421;28;20952;-77
2021/06/22 15:10:22;;;;;;;2.83;2.30;;;;;;;;;;5052256;28;20429;-77
2021/06/22 15:12:48;;;;;;;3.97;2.40;;;;;;;;;;5052193;28;20528;-77
2021/06/22 15:15:15;;;;;;;2.80;2.13;;;;;;;;;;5048335;28;20878;-78
2021/06/22 15:17:41;;;;;;;4.50;1.80;;;;;;;;;;5050984;28;20419;-77
2021/06/22 15:20:08;;;;;;;3.20;2.37;;;;;;;;;;5032116;28;20886;-79
2021/06/22 15:25:39;;;;;;;3.33;1.80;;;;;;;;;;5050848;28;20457;-76
2021/06/22 15:28:05;;;;;;;2.63;2.10;;;;;;;;;;5050229;28;20423;-77
2021/06/22 15:30:31;;;;;;;5.63;2.03;;;;;;;;;;5050714;28;20513;-75
2021/06/22 15:32:57;;;;;;;2.90;2.03;;;;;;;;;;5048319;28;20519;-73
2021/06/22 15:35:23;;;;;;;2.40;2.20;;;;;;;;;;5049075;28;20941;-77
2021/06/22 15:37:50;;;;;;;3.17;1.97;;;;;;;;;;5050003;28;20423;-74
2021/06/22 15:40:16;;;;;;;3.37;2.43;;;;;;;;;;5050128;28;20414;-79
2021/06/22 15:42:44;;;;;;;3.07;2.37;;;;;;;;;;5031720;28;20523;-73
2021/06/22 15:45:11;;;;;;;1.90;1.80;;;;;;;;;;5049660;28;20775;-73
2021/06/22 15:47:37;;;;;;;1.97;1.77;;;;;;;;;;5049703;28;20480;-75
2021/06/22 15:50:04;;;;;;;2.43;2.00;;;;;;;;;;5049555;28;20422;-73
2021/06/22 15:55:34;;;;;;;1.93;1.70;;;;;;;;;;5049749;28;20479;-76
2021/06/22 15:58:00;;;;;;;3.10;2.80;;;;;;;;;;5052936;28;20766;-74
2021/06/22 16:00:27;;;;;;;3.23;1.90;;;;;;;;;;5056426;28;20419;-73
2021/06/22 16:02:53;;;;;;;3.57;2.13;;;;;;;;;;5051779;28;20406;-75
2021/06/22 16:05:20;;;;;;;5.30;3.37;;;;;;;;;;5051666;28;20422;-75
2021/06/22 16:10:49;;;;;;;2.63;2.40;;;;;;;;;;5051481;28;20770;-76
2021/06/22 16:13:15;;;;;;;3.60;3.03;;;;;;;;;;5051376;28;21080;-74
2021/06/22 16:15:42;;;;;;;2.60;2.40;;;;;;;;;;5033792;28;20927;-74
2021/06/22 16:18:08;;;;;;;2.23;2.03;;;;;;;;;;5051369;28;20419;-74
2021/06/22 16:20:34;;;;;;;3.57;2.33;;;;;;;;;;5033487;28;21069;-74
2021/06/22 16:26:04;;;;;;;3.27;2.97;;;;;;;;;;5051583;28;20881;-73
2021/06/22 16:28:32;;;;;;;2.60;2.40;;;;;;;;;;5051543;28;20538;-76
2021/06/22 16:30:58;;;;;;;3.13;2.83;;;;;;;;;;5034052;28;20802;-73
2021/06/22 16:33:24;;;;;;;3.80;3.20;;;;;;;;;;5051267;28;20498;-74
2021/06/22 16:35:50;;;;;;;2.43;1.93;;;;;;;;;;5034992;28;20815;-73
2021/06/22 16:38:16;;;;;;;3.07;2.50;;;;;;;;;;5055161;28;20434;-71